Time;durP1;ratioP1;P1;durP2;ratioP2;P2;SDS_P1;SDS_P2;PMS_P1;PMS_P2;Temp;Humidity;BMP_temperature;BMP_pressure;BME280_temperature;BME280_humidity;BME280_pressure;Samples;Min_cycle;Max_cycle;Signal;HPM_P1;HPM_P2
2023/08/24 05:55:14;;;;;;;;;13.67;12.00;;;;;24.93;56.59;100928.94;5100067;27;45892;-75
2023/08/24 05:57:39;;;;;;;;;13.33;13.33;;;;;25.04;56.46;100923.13;5088379;27;45440;-72
2023/08/24 06:00:09;;;;;;;;;13.67;13.67;;;;;25.25;56.48;100919.84;5087935;27;49665;-72
2023/08/24 06:02:35;;;;;;;;;16.00;13.33;;;;;25.49;55.35;100915.31;5085980;27;45623;-72
2023/08/24 06:05:00;;;;;;;;;15.00;15.00;;;;;25.77;55.34;100917.59;5087195;27;45438;-73
2023/08/24 06:07:26;;;;;;;;;14.67;13.00;;;;;26.07;54.20;100910.59;5088850;27;45511;-74
2023/08/24 06:09:51;;;;;;;;;11.00;11.00;;;;;26.34;53.65;100905.63;5087157;27;49446;-73
2023/08/24 06:12:16;;;;;;;;;14.00;14.00;;;;;26.58;53.09;100907.28;5090904;27;47637;-74
2023/08/24 06:14:41;;;;;;;;;13.00;12.00;;;;;26.83;53.19;100917.91;5091476;27;45385;-72
2023/08/24 06:17:07;;;;;;;;;12.67;12.67;;;;;27.07;52.18;100921.41;5088598;27;45657;-72
2023/08/24 06:19:32;;;;;;;;;13.67;13.00;;;;;27.26;51.74;100919.16;5088462;27;51441;-72
2023/08/24 06:21:57;;;;;;;;;15.00;14.00;;;;;27.48;51.20;100931.81;5088649;27;45416;-74
2023/08/24 06:24:22;;;;;;;;;12.33;12.33;;;;;27.65;50.80;100934.34;5086955;27;45882;-74
2023/08/24 06:26:48;;;;;;;;;12.00;12.00;;;;;27.83;51.20;100928.44;5087442;27;57780;-73
2023/08/24 06:29:13;;;;;;;;;12.33;12.33;;;;;27.96;50.43;100932.34;5089034;27;51944;-72
2023/08/24 06:31:38;;;;;;;;;16.00;14.67;;;;;28.10;49.85;100934.19;5087516;27;49381;-72
2023/08/24 06:34:04;;;;;;;;;16.67;14.00;;;;;28.22;49.35;100926.31;5087331;27;46028;-72
2023/08/24 06:36:29;;;;;;;;;11.67;11.67;;;;;28.36;49.13;100931.94;5087328;27;45593;-72
2023/08/24 06:38:54;;;;;;;;;13.33;11.67;;;;;28.45;48.62;100924.44;5086837;27;45512;-74
2023/08/24 06:41:20;;;;;;;;;12.67;10.67;;;;;28.52;48.27;100925.31;5088330;27;45552;-74
2023/08/24 06:43:45;;;;;;;;;14.67;13.67;;;;;28.59;48.12;100915.31;5087737;27;46313;-75
2023/08/24 06:46:11;;;;;;;;;13.00;13.00;;;;;28.66;47.94;100924.38;5084123;27;49573;-73
2023/08/24 06:48:41;;;;;;;;;12.00;11.00;;;;;28.75;47.54;100916.03;5082076;27;45522;-74
2023/08/24 06:51:07;;;;;;;;;12.67;12.67;;;;;28.84;47.88;100906.63;5091415;27;45340;-72
2023/08/24 06:53:32;;;;;;;;;14.33;13.67;;;;;28.88;47.45;100915.25;5086777;27;45740;-73
2023/08/24 06:55:58;;;;;;;;;14.33;13.67;;;;;28.95;47.62;100921.66;5087652;27;45433;-73
2023/08/24 06:58:24;;;;;;;;;11.33;10.67;;;;;28.98;47.11;100921.25;5091324;27;45496;-72
2023/08/24 07:00:52;;;;;;;;;13.00;12.33;;;;;29.04;47.35;100923.19;5087743;27;45537;-72
2023/08/24 07:03:18;;;;;;;;;14.33;13.00;;;;;29.14;47.06;100916.50;5087745;27;46202;-72
2023/08/24 07:05:45;;;;;;;;;13.00;12.67;;;;;29.14;46.73;100911.03;5079205;27;45471;-72
2023/08/24 07:08:10;;;;;;;;;13.33;12.00;;;;;29.15;47.15;100919.03;5073658;27;45568;-72
2023/08/24 07:10:35;;;;;;;;;10.00;10.00;;;;;29.17;46.67;100914.22;5076599;27;45375;-72
2023/08/24 07:13:01;;;;;;;;;12.33;12.33;;;;;29.18;46.45;100912.31;5074596;27;45343;-74
2023/08/24 07:15:26;;;;;;;;;13.00;10.67;;;;;29.23;46.48;100917.16;5071088;27;45418;-75
2023/08/24 07:17:51;;;;;;;;;13.33;12.00;;;;;29.27;46.57;100921.19;5073778;27;45767;-73
2023/08/24 07:20:17;;;;;;;;;12.33;11.67;;;;;29.31;46.71;100917.84;5072939;28;56478;-72
2023/08/24 07:22:43;;;;;;;;;15.33;13.67;;;;;29.39;46.60;100925.00;5074253;28;45545;-72
2023/08/24 07:25:10;;;;;;;;;13.67;13.67;;;;;29.45;45.83;100916.00;5071303;27;45560;-73
2023/08/24 07:27:36;;;;;;;;;10.33;10.33;;;;;29.51;45.88;100911.63;5072354;27;46017;-72
2023/08/24 07:30:05;;;;;;;;;11.33;10.67;;;;;29.54;46.01;100918.56;5068356;27;45538;-71
2023/08/24 07:32:31;;;;;;;;;11.67;11.67;;;;;29.57;45.73;100915.44;5071309;27;46265;-72
2023/08/24 07:34:58;;;;;;;;;13.67;13.67;;;;;29.63;45.63;100900.09;5069921;27;46190;-72
2023/08/24 07:37:23;;;;;;;;;11.00;11.00;;;;;29.66;45.48;100884.13;5073592;28;45877;-72
2023/08/24 07:39:49;;;;;;;;;13.33;13.00;;;;;29.73;45.19;100886.88;5072683;27;45551;-72
2023/08/24 07:42:14;;;;;;;;;14.67;11.67;;;;;29.79;45.63;100890.69;5072904;27;46179;-72
2023/08/24 07:44:39;;;;;;;;;11.00;11.00;;;;;29.86;45.24;100894.25;5075147;27;45504;-71
2023/08/24 07:47:04;;;;;;;;;10.00;10.00;;;;;29.89;45.88;100880.16;5073118;27;45354;-72
2023/08/24 07:49:30;;;;;;;;;15.33;14.00;;;;;29.95;45.53;100865.66;5072251;27;45566;-73
2023/08/24 07:51:58;;;;;;;;;14.00;14.00;;;;;30.03;45.62;100859.13;5070266;27;46357;-73
2023/08/24 07:54:23;;;;;;;;;16.00;14.00;;;;;30.13;45.73;100844.19;5070536;27;45409;-74
2023/08/24 07:56:49;;;;;;;;;13.33;13.00;;;;;30.22;45.70;100852.00;5073262;28;45341;-74
2023/08/24 07:59:14;;;;;;;;;13.00;12.00;;;;;30.30;45.30;100856.41;5073552;27;45467;-74
2023/08/24 08:01:39;;;;;;;;;13.00;11.00;;;;;30.37;45.31;100854.50;5073470;27;45960;-72
2023/08/24 08:04:05;;;;;;;;;12.67;12.67;;;;;30.44;45.15;100856.41;5070632;28;46193;-72
2023/08/24 08:06:30;;;;;;;;;13.33;13.00;;;;;30.48;45.40;100843.94;5072162;27;45808;-73
2023/08/24 08:08:56;;;;;;;;;12.67;12.00;;;;;30.54;45.30;100843.13;5069013;27;55674;-73
2023/08/24 08:11:22;;;;;;;;;14.33;14.33;;;;;30.58;45.21;100830.69;5069353;27;45892;-72
2023/08/24 08:13:47;;;;;;;;;16.00;13.67;;;;;30.62;45.17;100829.16;5073550;27;45519;-73
2023/08/24 08:16:12;;;;;;;;;14.00;13.00;;;;;30.66;44.65;100820.53;5071179;27;45398;-74
2023/08/24 08:18:38;;;;;;;;;14.00;14.00;;;;;30.70;44.83;100828.13;5069088;27;45511;-72
2023/08/24 08:21:20;;;;;;;;;12.33;12.33;;;;;30.72;44.50;100814.22;5072293;27;45556;-73
2023/08/24 08:23:46;;;;;;;;;17.00;15.00;;;;;30.73;44.72;100822.22;5073521;28;45517;-73
2023/08/24 08:26:13;;;;;;;;;15.67;15.33;;;;;30.74;44.74;100821.16;5073140;27;45489;-73
2023/08/24 08:28:39;;;;;;;;;20.67;18.00;;;;;30.76;44.81;100826.44;5073251;27;45476;-72
2023/08/24 08:31:04;;;;;;;;;19.67;19.67;;;;;30.76;44.79;100830.00;5069974;27;46064;-73
2023/08/24 08:33:30;;;;;;;;;16.33;16.33;;;;;30.76;44.37;100824.53;5073000;27;45548;-72
2023/08/24 08:35:56;;;;;;;;;18.00;18.00;;;;;30.79;44.57;100830.63;5079519;27;53079;-72
2023/08/24 08:38:25;;;;;;;;;18.33;17.00;;;;;30.78;44.50;100832.53;5070587;27;45527;-72
2023/08/24 08:40:53;;;;;;;;;15.00;15.00;;;;;30.75;44.85;100827.50;5074548;27;47351;-74
2023/08/24 08:43:21;;;;;;;;;14.67;14.67;;;;;30.67;45.58;100834.00;5071280;28;45506;-73
2023/08/24 08:45:48;;;;;;;;;16.33;14.67;;;;;30.58;45.69;100827.09;5072296;27;46367;-74
2023/08/24 08:48:13;;;;;;;;;17.33;15.00;;;;;30.51;46.34;100821.63;5072238;27;45603;-74
2023/08/24 08:50:39;;;;;;;;;14.33;14.33;;;;;30.44;46.85;100821.63;5072195;27;45303;-71
2023/08/24 08:53:05;;;;;;;;;14.67;14.67;;;;;30.41;46.98;100823.97;5072693;27;45720;-71
2023/08/24 08:55:30;;;;;;;;;14.00;14.00;;;;;30.37;47.51;100829.03;5073817;27;45589;-72
2023/08/24 08:57:58;;;;;;;;;14.00;14.00;;;;;30.36;47.75;100806.28;5071151;27;45644;-73
2023/08/24 09:00:24;;;;;;;;;18.00;15.00;;;;;30.33;47.75;100790.28;5067935;27;45513;-73
2023/08/24 09:02:52;;;;;;;;;14.67;13.00;;;;;30.33;48.17;100812.16;5071809;27;45663;-74
2023/08/24 09:05:19;;;;;;;;;15.00;15.00;;;;;30.33;48.08;100844.19;5071779;28;45510;-73
2023/08/24 09:07:47;;;;;;;;;11.00;11.00;;;;;30.33;48.31;100871.56;5072893;27;45452;-73
2023/08/24 09:10:12;;;;;;;;;14.67;14.67;;;;;30.33;48.38;100899.78;5068879;27;46219;-74
2023/08/24 09:12:38;;;;;;;;;13.33;11.67;;;;;30.31;47.83;100899.16;5071681;27;45514;-73
2023/08/24 09:15:06;;;;;;;;;11.00;11.00;;;;;30.31;48.04;100879.13;5071501;27;45449;-74
2023/08/24 09:17:31;;;;;;;;;12.67;12.67;;;;;30.29;47.93;100871.16;5072185;27;45738;-72
2023/08/24 09:20:07;;;;;;;;;10.67;10.67;;;;;30.27;47.88;100876.00;5071253;27;45474;-72
2023/08/24 09:22:41;;;;;;;;;12.67;12.67;;;;;30.24;47.63;100863.56;5069757;27;45761;-72
2023/08/24 09:25:09;;;;;;;;;12.33;12.33;;;;;30.24;47.92;100865.44;5071686;28;45527;-73
2023/08/24 09:27:34;;;;;;;;;14.00;14.00;;;;;30.22;47.92;100871.16;5070670;27;47350;-75
2023/08/24 09:29:59;;;;;;;;;10.33;10.33;;;;;30.21;47.96;100874.94;5071541;28;46232;-75
2023/08/24 09:32:28;;;;;;;;;10.67;9.00;;;;;30.20;48.02;100880.63;5071238;27;53506;-74
2023/08/24 09:34:54;;;;;;;;;10.67;9.33;;;;;30.20;47.90;100886.94;5069472;27;45438;-74
2023/08/24 09:37:19;;;;;;;;;11.00;10.33;;;;;30.20;47.65;100903.38;5070682;27;45615;-74
2023/08/24 09:39:45;;;;;;;;;10.67;10.67;;;;;30.21;47.74;100909.69;5070430;27;45640;-74
2023/08/24 09:42:12;;;;;;;;;9.67;9.67;;;;;30.23;47.80;100904.84;5072386;27;45740;-74
2023/08/24 09:44:37;;;;;;;;;9.67;9.67;;;;;30.21;47.90;100899.56;5073402;27;45509;-74
2023/08/24 09:47:09;;;;;;;;;11.33;11.33;;;;;30.21;47.53;100899.56;5070761;27;45424;-74
2023/08/24 09:49:35;;;;;;;;;10.67;10.00;;;;;30.18;47.93;100901.88;5067989;27;46310;-73
2023/08/24 09:52:00;;;;;;;;;13.00;11.00;;;;;30.17;47.63;100902.94;5070905;27;55756;-71
2023/08/24 09:54:27;;;;;;;;;10.67;10.00;;;;;30.16;47.84;100893.88;5073963;27;45677;-73
2023/08/24 09:56:56;;;;;;;;;11.33;10.33;;;;;30.16;47.53;100893.06;5072550;27;45539;-73
2023/08/24 09:59:24;;;;;;;;;10.67;10.00;;;;;30.14;47.96;100878.72;5070717;27;46388;-73
2023/08/24 10:01:51;;;;;;;;;9.00;9.00;;;;;30.13;47.72;100880.63;5068886;27;45605;-75
2023/08/24 10:04:28;;;;;;;;;8.33;8.33;;;;;30.14;47.63;100876.84;5070362;27;45514;-74
2023/08/24 10:07:05;;;;;;;;;9.67;9.67;;;;;30.16;47.80;100882.13;5066337;28;45366;-74
2023/08/24 10:09:39;;;;;;;;;11.67;11.67;;;;;30.17;47.68;100881.91;5070090;27;46449;-75
2023/08/24 10:12:07;;;;;;;;;13.00;12.33;;;;;30.17;47.66;100872.84;5069625;27;45490;-73
2023/08/24 10:14:44;;;;;;;;;12.00;10.67;;;;;30.17;48.08;100881.06;5068789;27;45466;-74
2023/08/24 10:17:11;;;;;;;;;9.00;9.00;;;;;30.16;47.60;100898.53;5071250;27;45674;-74
2023/08/24 10:19:37;;;;;;;;;7.00;7.00;;;;;30.18;47.59;100908.22;5073652;27;45443;-75
2023/08/24 10:22:03;;;;;;;;;9.67;9.67;;;;;30.19;47.53;100898.94;5071004;27;45522;-75
2023/08/24 10:24:29;;;;;;;;;12.33;12.33;;;;;30.21;47.50;100901.47;5071379;27;45410;-74
2023/08/24 10:26:56;;;;;;;;;11.33;11.33;;;;;30.21;47.46;100907.78;5068157;28;45419;-75
2023/08/24 10:29:22;;;;;;;;;10.00;10.00;;;;;30.23;47.57;100902.09;5069665;27;46857;-74
2023/08/24 10:31:49;;;;;;;;;11.00;11.00;;;;;30.24;48.05;100914.72;5069155;27;45438;-74
2023/08/24 10:34:14;;;;;;;;;12.00;12.00;;;;;30.24;47.51;100909.25;5066927;28;45368;-73
2023/08/24 10:36:40;;;;;;;;;11.33;11.00;;;;;30.25;47.30;100908.22;5068081;27;45492;-73
2023/08/24 10:39:06;;;;;;;;;10.00;10.00;;;;;30.25;47.36;100919.19;5070593;27;46933;-73
2023/08/24 10:41:52;;;;;;;;;12.33;10.33;;;;;30.27;46.81;100918.97;5069439;27;45760;-73
2023/08/24 10:44:22;;;;;;;;;11.00;11.00;;;;;30.26;47.31;100928.22;5074583;28;45694;-74
2023/08/24 10:47:06;;;;;;;;;9.67;9.67;;;;;30.25;47.01;100932.84;5071078;27;45809;-73
2023/08/24 10:49:32;;;;;;;;;9.33;9.33;;;;;30.23;47.09;100938.53;5074448;27;47123;-74
2023/08/24 10:51:58;;;;;;;;;11.00;11.00;;;;;30.19;47.22;100945.47;5074814;27;45612;-73
2023/08/24 10:54:32;;;;;;;;;10.00;10.00;;;;;30.19;47.20;100950.09;5066201;27;45548;-73
2023/08/24 10:57:02;;;;;;;;;9.67;8.67;;;;;30.19;47.17;100963.78;5069080;27;45487;-72
2023/08/24 10:59:34;;;;;;;;;9.00;9.00;;;;;30.18;47.08;100953.91;5068682;27;46529;-74
2023/08/24 11:02:01;;;;;;;;;8.33;8.33;;;;;30.16;47.22;100940.41;5069544;28;45441;-74
2023/08/24 11:04:27;;;;;;;;;11.00;11.00;;;;;30.15;47.26;100949.69;5069319;27;45548;-73
2023/08/24 11:06:53;;;;;;;;;9.00;9.00;;;;;30.13;47.08;100962.75;5069072;27;45489;-74
2023/08/24 11:09:19;;;;;;;;;10.67;10.67;;;;;30.12;47.31;100996.66;5071915;27;45732;-75
2023/08/24 11:12:00;;;;;;;;;8.67;8.67;;;;;30.08;47.39;101000.81;5073457;27;45646;-74
2023/08/24 11:14:29;;;;;;;;;13.00;10.33;;;;;30.07;47.65;100991.75;5073910;27;45468;-73
2023/08/24 11:16:58;;;;;;;;;12.33;12.00;;;;;30.09;47.71;100994.28;5073837;27;45653;-74
2023/08/24 11:19:24;;;;;;;;;9.67;9.67;;;;;30.10;47.57;101001.44;5071318;27;46184;-74
2023/08/24 11:21:51;;;;;;;;;9.00;9.00;;;;;30.11;47.77;101011.34;5070722;27;45498;-74
2023/08/24 11:24:19;;;;;;;;;8.00;7.00;;;;;30.13;47.50;101033.06;5075451;27;45581;-73
2023/08/24 11:26:48;;;;;;;;;8.67;8.67;;;;;30.10;47.56;101031.53;5072477;27;45518;-72
2023/08/24 11:29:15;;;;;;;;;11.67;8.67;;;;;30.08;47.61;101031.75;5071656;27;45667;-73
2023/08/24 11:31:41;;;;;;;;;8.33;8.33;;;;;30.09;47.44;101051.75;5072197;27;45509;-73
2023/08/24 11:34:10;;;;;;;;;10.33;10.33;;;;;30.06;47.35;101063.97;5071651;27;45583;-73
2023/08/24 11:36:43;;;;;;;;;11.00;9.67;;;;;30.05;47.54;101114.28;5073792;27;45408;-74
2023/08/24 11:39:19;;;;;;;;;11.00;10.33;;;;;30.06;47.93;101140.59;5075422;27;45480;-75
2023/08/24 11:41:57;;;;;;;;;9.33;9.33;;;;;30.08;47.84;101160.38;5073310;27;45400;-75
2023/08/24 11:44:22;;;;;;;;;12.00;12.00;;;;;30.10;47.98;101185.66;5072636;27;45950;-75
2023/08/24 11:46:47;;;;;;;;;11.67;10.33;;;;;30.11;48.02;101190.13;5069141;28;45420;-75
2023/08/24 11:49:13;;;;;;;;;10.00;10.00;;;;;30.12;47.98;101199.19;5072742;27;46498;-73
2023/08/24 11:51:38;;;;;;;;;11.00;11.00;;;;;30.16;48.38;101216.88;5069084;27;45663;-74
2023/08/24 11:54:04;;;;;;;;;12.00;10.67;;;;;30.20;48.13;101225.53;5065706;27;45369;-74
2023/08/24 11:56:29;;;;;;;;;15.50;15.00;;;;;30.22;48.10;101237.97;5070748;27;45784;-74
2023/08/24 11:58:54;;;;;;;;;10.67;10.67;;;;;30.24;47.98;101200.28;5069981;27;45476;-75
2023/08/24 12:01:20;;;;;;;;;9.00;8.33;;;;;30.27;48.25;101181.78;5067068;27;48825;-75
2023/08/24 12:03:46;;;;;;;;;14.67;12.67;;;;;30.28;48.35;101189.75;5071942;27;45463;-73
2023/08/24 12:06:16;;;;;;;;;13.33;12.00;;;;;30.28;48.26;101192.50;5071789;27;45515;-73
2023/08/24 12:08:44;;;;;;;;;11.67;11.67;;;;;30.30;48.19;101181.34;5072392;27;46279;-74
2023/08/24 12:11:12;;;;;;;;;11.33;11.33;;;;;30.32;48.56;101173.78;5071049;27;45547;-74
2023/08/24 12:13:37;;;;;;;;;11.00;11.00;;;;;30.33;48.20;101159.03;5072411;27;45402;-74
2023/08/24 12:16:04;;;;;;;;;11.33;11.00;;;;;30.32;48.38;101149.97;5073820;27;45416;-74
2023/08/24 12:18:31;;;;;;;;;14.00;14.00;;;;;30.33;48.43;101145.34;5070460;27;45461;-74
2023/08/24 12:20:57;;;;;;;;;13.67;12.00;;;;;30.33;48.26;101127.00;5069127;27;45598;-74
2023/08/24 12:23:26;;;;;;;;;10.67;10.67;;;;;30.33;47.85;101113.31;5072153;27;45588;-74
2023/08/24 12:25:55;;;;;;;;;11.00;11.00;;;;;30.29;47.89;101111.22;5070308;27;45453;-73
2023/08/24 12:28:21;;;;;;;;;12.00;11.00;;;;;30.27;48.08;101094.16;5071508;27;45521;-74
2023/08/24 12:30:48;;;;;;;;;11.67;11.67;;;;;30.26;48.16;101076.03;5070175;27;45529;-74
2023/08/24 12:33:27;;;;;;;;;12.33;12.33;;;;;30.26;48.31;101038.56;5064345;27;45500;-73
2023/08/24 12:35:54;;;;;;;;;11.67;10.00;;;;;30.28;48.58;101052.88;5071338;27;45392;-73
2023/08/24 12:38:19;;;;;;;;;11.33;10.33;;;;;30.32;48.42;101054.16;5068842;27;46078;-73
2023/08/24 12:40:45;;;;;;;;;10.67;10.67;;;;;30.34;48.67;101041.13;5072378;28;45454;-73
2023/08/24 12:43:10;;;;;;;;;11.67;11.67;;;;;30.35;48.60;101025.50;5071798;27;45377;-74
2023/08/24 12:45:37;;;;;;;;;9.33;9.33;;;;;30.38;48.63;101028.66;5072565;27;45328;-74
2023/08/24 12:48:07;;;;;;;;;10.33;9.00;;;;;30.38;48.49;101028.66;5057270;28;46199;-73
2023/08/24 12:50:33;;;;;;;;;15.00;12.33;;;;;30.40;48.50;101019.44;5068934;27;45509;-72
2023/08/24 12:52:59;;;;;;;;;11.00;11.00;;;;;30.40;48.47;101022.16;5070286;27;45572;-71
2023/08/24 12:55:26;;;;;;;;;12.33;11.33;;;;;30.42;48.34;101000.88;5068626;27;45528;-73
2023/08/24 12:57:52;;;;;;;;;12.67;11.00;;;;;30.43;48.52;100972.44;5070303;27;46174;-74
2023/08/24 13:00:18;;;;;;;;;13.00;13.00;;;;;30.44;48.54;100938.56;5066568;27;45491;-74
2023/08/24 13:02:43;;;;;;;;;13.00;12.00;;;;;30.45;48.53;100918.31;5069356;27;45410;-74
2023/08/24 13:05:08;;;;;;;;;10.67;10.67;;;;;30.47;48.56;100880.59;5071950;27;45449;-74
2023/08/24 13:07:34;;;;;;;;;13.33;13.33;;;;;30.49;48.78;100838.25;5071954;27;46356;-73
2023/08/24 13:09:59;;;;;;;;;16.33;15.33;;;;;30.48;48.89;100795.50;5072399;27;45429;-73
2023/08/24 13:12:25;;;;;;;;;16.33;14.67;;;;;30.44;49.35;100747.72;5072294;27;45666;-72
2023/08/24 13:14:50;;;;;;;;;17.33;16.00;;;;;30.36;49.66;100657.59;5070080;27;45564;-73
2023/08/24 13:17:15;;;;;;;;;17.67;16.00;;;;;30.17;49.84;100673.03;5070862;28;45462;-73
2023/08/24 13:19:41;;;;;;;;;15.67;14.00;;;;;29.96;50.00;100719.56;5070531;27;45362;-72
2023/08/24 13:22:07;;;;;;;;;13.33;11.33;;;;;29.79;50.28;100781.25;5070670;27;45502;-74
2023/08/24 13:24:33;;;;;;;;;12.33;12.33;;;;;29.69;50.32;100807.13;5071295;27;45491;-74
2023/08/24 13:26:59;;;;;;;;;14.00;12.67;;;;;29.61;50.82;100821.00;5071962;27;45546;-74
2023/08/24 13:29:24;;;;;;;;;15.33;13.33;;;;;29.59;51.21;100820.38;5069880;27;45430;-74
2023/08/24 13:31:50;;;;;;;;;12.33;12.33;;;;;29.58;51.38;100794.91;5070846;27;45489;-74
2023/08/24 13:34:15;;;;;;;;;10.00;10.00;;;;;29.59;51.17;100790.31;5072952;27;45410;-74
2023/08/24 13:36:40;;;;;;;;;13.33;13.33;;;;;29.64;51.27;100773.25;5061292;27;46126;-73
2023/08/24 13:39:06;;;;;;;;;11.33;11.33;;;;;29.68;51.38;100793.66;5070870;27;54929;-73
2023/08/24 13:41:31;;;;;;;;;14.00;13.00;;;;;29.71;51.48;100804.19;5068952;27;45460;-73
2023/08/24 13:43:56;;;;;;;;;10.00;10.00;;;;;29.72;51.55;100795.75;5067144;28;45323;-75
2023/08/24 13:46:22;;;;;;;;;11.67;10.67;;;;;29.74;51.68;100770.94;5063958;27;49585;-72
2023/08/24 13:48:47;;;;;;;;;10.67;9.33;;;;;29.75;51.35;100766.31;5066279;27;45387;-74
2023/08/24 13:51:12;;;;;;;;;13.33;11.33;;;;;29.75;51.39;100748.00;5068384;27;47939;-74
2023/08/24 13:53:38;;;;;;;;;8.00;8.00;;;;;29.77;51.58;100745.91;5069713;27;45414;-73
2023/08/24 13:56:04;;;;;;;;;12.67;10.67;;;;;29.77;51.59;100740.44;5070325;27;45508;-74
2023/08/24 13:58:29;;;;;;;;;11.00;11.00;;;;;29.80;51.89;100720.03;5059153;27;45429;-73
2023/08/24 14:00:56;;;;;;;;;9.67;9.33;;;;;29.81;51.89;100711.63;5070302;27;46882;-72
2023/08/24 14:03:22;;;;;;;;;10.33;9.67;;;;;29.84;52.29;100693.94;5071505;27;45613;-73
2023/08/24 14:05:49;;;;;;;;;12.00;12.00;;;;;29.87;52.01;100679.00;5071174;27;45868;-73
2023/08/24 14:08:14;;;;;;;;;9.67;9.67;;;;;29.92;51.92;100665.50;5069689;27;45535;-73
2023/08/24 14:10:40;;;;;;;;;9.33;9.00;;;;;29.95;51.83;100668.66;5070576;27;45344;-73
2023/08/24 14:13:05;;;;;;;;;10.00;9.67;;;;;30.01;51.78;100657.91;5070768;27;45489;-72
2023/08/24 14:15:30;;;;;;;;;8.33;8.33;;;;;30.04;51.58;100647.34;5071406;27;46174;-72
2023/08/24 14:17:56;;;;;;;;;13.67;9.33;;;;;30.09;51.60;100666.69;5075034;28;45387;-72
2023/08/24 14:20:21;;;;;;;;;9.00;9.00;;;;;30.16;51.61;100696.81;5071770;27;45366;-72
2023/08/24 14:22:48;;;;;;;;;11.67;10.67;;;;;30.19;51.46;100707.34;5076976;27;45661;-73
2023/08/24 14:25:14;;;;;;;;;9.50;9.50;;;;;30.22;51.48;100701.47;5072018;27;47091;-73
2023/08/24 14:27:41;;;;;;;;;9.00;9.00;;;;;30.26;51.34;100690.91;5074618;27;45438;-73
2023/08/24 14:30:07;;;;;;;;;9.00;9.00;;;;;30.30;51.12;100699.53;5074220;27;45585;-72
2023/08/24 14:32:33;;;;;;;;;3.00;2.67;;;;;30.35;51.39;100729.81;5072492;27;45524;-75
2023/08/24 14:34:58;;;;;;;;;10.00;10.00;;;;;30.37;51.34;100739.50;5068671;27;46195;-74
2023/08/24 14:37:24;;;;;;;;;9.67;9.67;;;;;30.39;51.30;100714.66;5073675;27;46557;-73
2023/08/24 14:39:49;;;;;;;;;10.33;8.67;;;;;30.41;51.26;100704.34;5074152;27;45403;-73
2023/08/24 14:42:15;;;;;;;;;10.00;8.00;;;;;30.42;51.22;100708.75;5074263;28;45491;-73
2023/08/24 14:44:40;;;;;;;;;8.00;8.00;;;;;30.43;51.16;100691.28;5073041;27;45563;-74
2023/08/24 14:47:05;;;;;;;;;12.33;10.33;;;;;30.44;51.18;100695.69;5063144;28;52783;-74
2023/08/24 14:49:31;;;;;;;;;8.67;8.67;;;;;30.47;51.35;100680.72;5072920;27;46466;-74
2023/08/24 14:51:56;;;;;;;;;7.33;7.33;;;;;30.45;50.95;100669.16;5073874;28;45466;-74
2023/08/24 14:54:21;;;;;;;;;8.67;8.67;;;;;30.44;51.08;100671.03;5069593;27;45390;-73
2023/08/24 14:56:47;;;;;;;;;7.00;7.00;;;;;30.45;51.01;100652.72;5066285;27;45674;-73
2023/08/24 14:59:12;;;;;;;;;10.67;9.33;;;;;30.47;50.85;100642.38;5066361;27;45540;-73
2023/08/24 15:01:37;;;;;;;;;9.00;9.00;;;;;30.49;51.17;100641.09;5067852;27;49770;-73
2023/08/24 15:04:03;;;;;;;;;7.67;7.67;;;;;30.51;51.00;100635.41;5064468;27;46433;-73
2023/08/24 15:06:28;;;;;;;;;8.67;8.67;;;;;30.53;50.90;100646.16;5071039;27;45447;-74
2023/08/24 15:08:53;;;;;;;;;8.00;8.00;;;;;30.57;50.71;100652.88;5074634;28;47478;-72
2023/08/24 15:11:19;;;;;;;;;9.00;8.33;;;;;30.59;50.93;100673.50;5071986;27;48195;-74
2023/08/24 15:13:44;;;;;;;;;10.00;10.00;;;;;30.61;50.31;100667.81;5073661;28;46117;-73
2023/08/24 15:16:10;;;;;;;;;9.33;9.00;;;;;30.62;51.05;100650.31;5072971;27;45420;-76
2023/08/24 15:18:35;;;;;;;;;8.67;8.00;;;;;30.57;50.29;100634.53;5070339;27;45693;-85
2023/08/24 15:21:04;;;;;;;;;9.00;9.00;;;;;30.45;50.94;100663.69;5072160;27;45509;-90
2023/08/24 15:23:31;;;;;;;;;9.67;9.67;;;;;30.33;51.04;100658.88;5072275;27;45463;-90
2023/08/24 15:25:58;;;;;;;;;10.67;10.00;;;;;30.23;51.15;100670.28;5071630;28;45378;-87
2023/08/24 15:28:25;;;;;;;;;9.00;9.00;;;;;30.17;51.10;100670.31;5072526;27;45418;-89
2023/08/24 15:30:51;;;;;;;;;9.33;9.33;;;;;30.15;51.34;100665.03;5073197;27;45783;-90
2023/08/24 15:33:18;;;;;;;;;10.33;10.33;;;;;30.11;51.52;100648.22;5070436;27;45512;-89
2023/08/24 15:35:43;;;;;;;;;9.33;8.00;;;;;30.11;52.07;100672.84;5073879;27;45445;-91
2023/08/24 15:38:09;;;;;;;;;8.33;8.33;;;;;30.09;51.74;100660.41;5070864;27;46965;-83
2023/08/24 15:40:36;;;;;;;;;10.00;9.00;;;;;30.10;51.32;100664.81;5068373;27;45550;-84
2023/08/24 15:43:02;;;;;;;;;9.00;8.33;;;;;30.08;51.20;100634.94;5072860;27;45614;-83
2023/08/24 15:45:29;;;;;;;;;9.00;7.67;;;;;30.08;51.16;100637.66;5079592;27;45461;-84
2023/08/24 15:47:55;;;;;;;;;10.00;8.67;;;;;30.08;50.98;100645.88;5067549;27;45431;-82
2023/08/24 15:50:20;;;;;;;;;9.00;9.00;;;;;30.06;50.78;100641.69;5069690;27;45588;-87
2023/08/24 15:52:46;;;;;;;;;11.00;11.00;;;;;30.03;51.06;100639.38;5067290;27;46147;-86
2023/08/24 15:55:11;;;;;;;;;9.33;9.33;;;;;29.99;50.65;100636.22;5073065;28;45496;-87
2023/08/24 15:57:37;;;;;;;;;9.00;7.00;;;;;30.02;50.63;100648.63;5072249;27;45602;-86
2023/08/24 16:00:03;;;;;;;;;8.33;8.33;;;;;30.03;50.65;100628.44;5072363;27;45418;-87
2023/08/24 16:02:29;;;;;;;;;8.33;8.33;;;;;29.98;50.31;100646.34;5072712;27;47486;-86
2023/08/24 16:04:55;;;;;;;;;9.00;9.00;;;;;29.98;50.72;100631.81;5067540;28;45486;-86
2023/08/24 16:07:20;;;;;;;;;9.67;9.67;;;;;29.96;50.47;100632.03;5073772;28;45586;-86
2023/08/24 16:09:46;;;;;;;;;9.67;9.00;;;;;29.96;50.59;100636.66;5070633;27;45449;-86
2023/08/24 16:12:11;;;;;;;;;9.33;8.00;;;;;29.94;50.80;100645.09;5070747;27;46066;-85
2023/08/24 16:14:36;;;;;;;;;8.00;8.00;;;;;29.92;50.66;100644.44;5074679;27;45508;-88
2023/08/24 16:17:02;;;;;;;;;9.00;9.00;;;;;29.91;50.71;100652.88;5067198;27;53267;-89
2023/08/24 16:19:27;;;;;;;;;9.00;9.00;;;;;29.91;50.90;100641.94;5071817;27;45613;-89
2023/08/24 16:21:52;;;;;;;;;10.00;10.00;;;;;29.91;50.28;100652.88;5073155;27;45481;-91
2023/08/24 16:24:34;;;;;;;;;8.67;8.67;;;;;29.91;50.81;100640.03;5071634;27;45851;-82
2023/08/24 16:26:59;;;;;;;;;9.33;8.67;;;;;29.93;50.87;100653.50;5070002;27;45533;-84
2023/08/24 16:29:26;;;;;;;;;11.00;9.00;;;;;29.94;50.76;100649.72;5070075;27;45634;-85
2023/08/24 16:31:52;;;;;;;;;8.00;7.33;;;;;29.94;50.64;100650.56;5069876;27;46876;-86
2023/08/24 16:34:17;;;;;;;;;11.00;10.33;;;;;29.94;50.39;100642.34;5071858;27;45479;-87
2023/08/24 16:36:43;;;;;;;;;10.67;9.00;;;;;29.97;50.64;100639.19;5071555;27;45618;-83
2023/08/24 16:39:11;;;;;;;;;14.33;9.67;;;;;29.97;50.65;100624.66;5074964;27;45390;-86
2023/08/24 16:41:37;;;;;;;;;9.67;7.67;;;;;29.96;50.83;100632.03;5072923;27;45429;-85
2023/08/24 16:44:02;;;;;;;;;9.67;9.67;;;;;29.96;50.71;100625.72;5070637;27;45484;-84
2023/08/24 16:46:28;;;;;;;;;5.67;5.67;;;;;29.94;50.46;100625.94;5069143;27;45462;-83
2023/08/24 16:48:53;;;;;;;;;8.00;8.00;;;;;29.94;50.52;100633.28;5071152;27;45623;-86
2023/08/24 16:51:18;;;;;;;;;12.00;10.67;;;;;29.99;50.51;100644.44;5071558;27;45943;-81
2023/08/24 16:53:44;;;;;;;;;11.00;10.33;;;;;29.99;50.49;100652.63;5072697;27;52793;-83
2023/08/24 16:56:09;;;;;;;;;7.33;7.33;;;;;29.98;50.11;100654.56;5069616;27;52320;-84
2023/08/24 16:58:34;;;;;;;;;8.00;8.00;;;;;29.97;50.39;100650.13;5068428;27;45671;-89
2023/08/24 17:01:05;;;;;;;;;10.00;8.67;;;;;30.03;50.45;100664.00;5069749;27;47077;-84
2023/08/24 17:03:30;;;;;;;;;9.33;9.00;;;;;30.07;50.79;100674.31;5070663;28;45553;-84
2023/08/24 17:05:55;;;;;;;;;8.33;7.67;;;;;30.13;49.95;100669.06;5069095;27;45669;-83
